sensor_id;sensor_type;location;lat;lon;timestamp;pressure;altitude;pressure_sealevel;temperature;humidity
26697;BME280;14312;52.614;13.496;2023-09-12T00:00:07;100522.06;;;22.52;46.93
26697;BME280;14312;52.614;13.496;2023-09-12T00:02:53;100533.56;;;22.49;46.93
26697;BME280;14312;52.614;13.496;2023-09-12T00:05:39;100532.28;;;22.47;47.05
26697;BME280;14312;52.614;13.496;2023-09-12T00:08:26;100532.47;;;22.42;46.93
26697;BME280;14312;52.614;13.496;2023-09-12T00:11:12;100533.09;;;22.39;47.26
26697;BME280;14312;52.614;13.496;2023-09-12T00:13:58;100532.16;;;22.35;47.20
26697;BME280;14312;52.614;13.496;2023-09-12T00:16:45;100528.50;;;22.31;47.33
26697;BME280;14312;52.614;13.496;2023-09-12T00:19:30;100531.84;;;22.27;47.37
26697;BME280;14312;52.614;13.496;2023-09-12T00:22:16;100532.00;;;22.22;47.32
26697;BME280;14312;52.614;13.496;2023-09-12T00:25:02;100528.63;;;22.17;47.46
26697;BME280;14312;52.614;13.496;2023-09-12T00:27:49;100532.16;;;22.17;47.50
26697;BME280;14312;52.614;13.496;2023-09-12T00:30:35;100524.66;;;22.14;47.57
26697;BME280;14312;52.614;13.496;2023-09-12T00:33:20;100527.53;;;22.09;47.79
26697;BME280;14312;52.614;13.496;2023-09-12T00:36:06;100536.81;;;22.08;47.95
26697;BME280;14312;52.614;13.496;2023-09-12T00:38:52;100533.59;;;22.06;48.02
26697;BME280;14312;52.614;13.496;2023-09-12T00:41:38;100538.09;;;22.02;47.99
26697;BME280;14312;52.614;13.496;2023-09-12T00:44:24;100537.28;;;22.02;48.25
26697;BME280;14312;52.614;13.496;2023-09-12T00:47:11;100533.28;;;21.99;48.12
26697;BME280;14312;52.614;13.496;2023-09-12T00:49:58;100540.94;;;21.97;48.29
26697;BME280;14312;52.614;13.496;2023-09-12T00:52:45;100543.91;;;21.96;48.02
26697;BME280;14312;52.614;13.496;2023-09-12T00:55:32;100541.56;;;21.94;48.25
26697;BME280;14312;52.614;13.496;2023-09-12T00:58:19;100541.69;;;21.89;48.33
26697;BME280;14312;52.614;13.496;2023-09-12T01:01:05;100543.59;;;21.88;48.31
26697;BME280;14312;52.614;13.496;2023-09-12T01:03:52;100542.03;;;21.87;48.48
26697;BME280;14312;52.614;13.496;2023-09-12T01:06:38;100543.75;;;21.83;48.49
26697;BME280;14312;52.614;13.496;2023-09-12T01:09:24;100537.06;;;21.81;48.40
26697;BME280;14312;52.614;13.496;2023-09-12T01:12:10;100534.50;;;21.76;48.60
26697;BME280;14312;52.614;13.496;2023-09-12T01:15:00;100532.88;;;21.75;48.42
26697;BME280;14312;52.614;13.496;2023-09-12T01:17:46;100535.13;;;21.73;48.46
26697;BME280;14312;52.614;13.496;2023-09-12T01:20:34;100538.16;;;21.71;48.73
26697;BME280;14312;52.614;13.496;2023-09-12T01:29:21;100537.03;;;21.64;48.72
26697;BME280;14312;52.614;13.496;2023-09-12T01:32:08;100537.66;;;21.61;48.81
26697;BME280;14312;52.614;13.496;2023-09-12T01:34:54;100538.28;;;21.58;49.07
26697;BME280;14312;52.614;13.496;2023-09-12T01:37:40;100542.13;;;21.57;49.20
26697;BME280;14312;52.614;13.496;2023-09-12T01:40:43;100543.22;;;21.56;50.17
26697;BME280;14312;52.614;13.496;2023-09-12T01:43:30;100539.88;;;21.50;49.25
26697;BME280;14312;52.614;13.496;2023-09-12T01:46:17;100535.56;;;21.49;49.47
26697;BME280;14312;52.614;13.496;2023-09-12T01:49:05;100527.72;;;21.47;49.54
26697;BME280;14312;52.614;13.496;2023-09-12T01:51:53;100536.16;;;21.46;49.61
26697;BME280;14312;52.614;13.496;2023-09-12T01:54:40;100536.50;;;21.44;49.76
26697;BME280;14312;52.614;13.496;2023-09-12T01:57:26;100541.44;;;21.42;49.61
26697;BME280;14312;52.614;13.496;2023-09-12T02:00:13;100533.59;;;21.41;49.88
26697;BME280;14312;52.614;13.496;2023-09-12T02:02:59;100534.25;;;21.38;49.73
26697;BME280;14312;52.614;13.496;2023-09-12T02:05:45;100529.16;;;21.36;49.87
26697;BME280;14312;52.614;13.496;2023-09-12T02:08:31;100524.81;;;21.35;49.96
26697;BME280;14312;52.614;13.496;2023-09-12T02:11:17;100528.66;;;21.34;49.89
26697;BME280;14312;52.614;13.496;2023-09-12T02:14:03;100530.88;;;21.32;49.89
26697;BME280;14312;52.614;13.496;2023-09-12T02:16:49;100526.09;;;21.29;49.96
26697;BME280;14312;52.614;13.496;2023-09-12T02:19:35;100517.47;;;21.27;50.21
26697;BME280;14312;52.614;13.496;2023-09-12T02:22:20;100521.94;;;21.23;50.29
26697;BME280;14312;52.614;13.496;2023-09-12T02:25:07;100523.03;;;21.22;50.26
26697;BME280;14312;52.614;13.496;2023-09-12T02:27:54;100515.50;;;21.19;50.37
26697;BME280;14312;52.614;13.496;2023-09-12T02:30:39;100520.94;;;21.19;50.19
26697;BME280;14312;52.614;13.496;2023-09-12T02:33:28;100517.75;;;21.17;50.36
26697;BME280;14312;52.614;13.496;2023-09-12T02:36:14;100517.25;;;21.15;50.42
26697;BME280;14312;52.614;13.496;2023-09-12T02:39:00;100518.34;;;21.14;50.38
26697;BME280;14312;52.614;13.496;2023-09-12T02:41:46;100521.38;;;21.13;50.64
26697;BME280;14312;52.614;13.496;2023-09-12T02:44:32;100522.00;;;21.09;50.41
26697;BME280;14312;52.614;13.496;2023-09-12T02:47:18;100504.94;;;21.09;50.55
26697;BME280;14312;52.614;13.496;2023-09-12T02:50:04;100510.97;;;21.06;50.63
26697;BME280;14312;52.614;13.496;2023-09-12T02:52:50;100512.09;;;21.05;50.72
26697;BME280;14312;52.614;13.496;2023-09-12T02:55:39;100506.97;;;21.03;51.09
26697;BME280;14312;52.614;13.496;2023-09-12T02:58:25;100502.19;;;21.00;50.55
26697;BME280;14312;52.614;13.496;2023-09-12T03:01:19;100504.41;;;20.98;51.17
26697;BME280;14312;52.614;13.496;2023-09-12T03:04:05;100511.88;;;20.93;50.59
26697;BME280;14312;52.614;13.496;2023-09-12T03:06:51;100512.50;;;20.90;50.83
26697;BME280;14312;52.614;13.496;2023-09-12T03:09:37;100506.09;;;20.86;50.74
26697;BME280;14312;52.614;13.496;2023-09-12T03:12:23;100501.28;;;20.83;50.77
26697;BME280;14312;52.614;13.496;2023-09-12T03:15:09;100504.16;;;20.78;50.92
26697;BME280;14312;52.614;13.496;2023-09-12T03:17:56;100504.00;;;20.74;50.84
26697;BME280;14312;52.614;13.496;2023-09-12T03:20:41;100503.78;;;20.70;51.01
26697;BME280;14312;52.614;13.496;2023-09-12T03:23:27;100501.22;;;20.65;51.15
26697;BME280;14312;52.614;13.496;2023-09-12T03:26:14;100502.94;;;20.61;50.96
26697;BME280;14312;52.614;13.496;2023-09-12T03:28:59;100504.69;;;20.57;51.32
26697;BME280;14312;52.614;13.496;2023-09-12T03:31:45;100502.91;;;20.53;51.33
26697;BME280;14312;52.614;13.496;2023-09-12T03:34:31;100501.09;;;20.48;51.36
26697;BME280;14312;52.614;13.496;2023-09-12T03:37:17;100496.34;;;20.45;51.41
26697;BME280;14312;52.614;13.496;2023-09-12T03:40:03;100507.75;;;20.42;51.73
26697;BME280;14312;52.614;13.496;2023-09-12T03:42:50;100501.38;;;20.38;51.53
26697;BME280;14312;52.614;13.496;2023-09-12T03:45:36;100503.59;;;20.36;51.56
26697;BME280;14312;52.614;13.496;2023-09-12T03:48:22;100506.59;;;20.35;51.81
26697;BME280;14312;52.614;13.496;2023-09-12T03:51:08;100508.78;;;20.32;52.14
26697;BME280;14312;52.614;13.496;2023-09-12T03:53:54;100503.69;;;20.31;52.10
26697;BME280;14312;52.614;13.496;2023-09-12T03:56:40;100501.28;;;20.29;52.01
26697;BME280;14312;52.614;13.496;2023-09-12T03:59:26;100514.00;;;20.29;52.15
26697;BME280;14312;52.614;13.496;2023-09-12T04:02:13;100514.00;;;20.29;52.11
26697;BME280;14312;52.614;13.496;2023-09-12T04:04:58;100517.81;;;20.28;52.20
26697;BME280;14312;52.614;13.496;2023-09-12T04:07:45;100513.00;;;20.25;52.21
26697;BME280;14312;52.614;13.496;2023-09-12T04:10:30;100521.63;;;20.27;52.19
26697;BME280;14312;52.614;13.496;2023-09-12T04:13:18;100519.22;;;20.25;52.22
26697;BME280;14312;52.614;13.496;2023-09-12T04:16:04;100520.03;;;20.26;52.32
26697;BME280;14312;52.614;13.496;2023-09-12T04:18:49;100516.84;;;20.24;52.72
26697;BME280;14312;52.614;13.496;2023-09-12T04:21:35;100517.44;;;20.21;52.54
26697;BME280;14312;52.614;13.496;2023-09-12T04:24:21;100515.53;;;20.21;52.70
26697;BME280;14312;52.614;13.496;2023-09-12T04:27:07;100522.34;;;20.19;52.74
26697;BME280;14312;52.614;13.496;2023-09-12T04:29:53;100518.06;;;20.18;52.90
26697;BME280;14312;52.614;13.496;2023-09-12T04:32:39;100516.47;;;20.17;53.06
26697;BME280;14312;52.614;13.496;2023-09-12T04:35:25;100521.88;;;20.17;53.09
26697;BME280;14312;52.614;13.496;2023-09-12T04:38:11;100516.47;;;20.17;53.29
26697;BME280;14312;52.614;13.496;2023-09-12T04:40:57;100524.25;;;20.18;52.94
26697;BME280;14312;52.614;13.496;2023-09-12T04:43:50;100525.06;;;20.19;53.41
26697;BME280;14312;52.614;13.496;2023-09-12T04:46:36;100526.66;;;20.20;53.37
26697;BME280;14312;52.614;13.496;2023-09-12T04:49:22;100529.88;;;20.22;53.19
26697;BME280;14312;52.614;13.496;2023-09-12T04:52:07;100524.97;;;20.24;53.43
26697;BME280;14312;52.614;13.496;2023-09-12T04:54:53;100516.22;;;20.27;53.46
26697;BME280;14312;52.614;13.496;2023-09-12T04:57:39;100516.72;;;20.29;53.37
26697;BME280;14312;52.614;13.496;2023-09-12T05:00:25;100517.22;;;20.31;53.63
26697;BME280;14312;52.614;13.496;2023-09-12T05:03:11;100519.94;;;20.31;53.61
26697;BME280;14312;52.614;13.496;2023-09-12T05:05:57;100524.13;;;20.37;53.74
26697;BME280;14312;52.614;13.496;2023-09-12T05:08:43;100528.63;;;20.42;53.88
26697;BME280;14312;52.614;13.496;2023-09-12T05:11:29;100531.81;;;20.44;53.91
26697;BME280;14312;52.614;13.496;2023-09-12T05:14:15;100526.78;;;20.51;53.96
26697;BME280;14312;52.614;13.496;2023-09-12T05:17:01;100529.34;;;20.56;53.91
26697;BME280;14312;52.614;13.496;2023-09-12T05:19:47;100528.13;;;20.62;53.83
26697;BME280;14312;52.614;13.496;2023-09-12T05:22:33;100534.69;;;20.69;54.15
26697;BME280;14312;52.614;13.496;2023-09-12T05:25:19;100530.75;;;20.76;54.35
26697;BME280;14312;52.614;13.496;2023-09-12T05:28:05;100528.38;;;20.83;54.27
26697;BME280;14312;52.614;13.496;2023-09-12T05:30:52;100535.28;;;20.89;54.38
26697;BME280;14312;52.614;13.496;2023-09-12T05:33:38;100545.34;;;20.97;54.21
26697;BME280;14312;52.614;13.496;2023-09-12T05:36:24;100543.34;;;21.02;54.22
26697;BME280;14312;52.614;13.496;2023-09-12T05:39:10;100538.72;;;21.11;54.43
26697;BME280;14312;52.614;13.496;2023-09-12T05:41:56;100548.84;;;21.20;54.42
26697;BME280;14312;52.614;13.496;2023-09-12T05:44:42;100546.16;;;21.28;54.45
26697;BME280;14312;52.614;13.496;2023-09-12T05:47:30;100545.41;;;21.36;54.47
26697;BME280;14312;52.614;13.496;2023-09-12T05:50:16;100543.03;;;21.43;54.43
26697;BME280;14312;52.614;13.496;2023-09-12T05:53:02;100541.16;;;21.53;54.30
26697;BME280;14312;52.614;13.496;2023-09-12T05:55:48;100549.28;;;21.61;54.55
26697;BME280;14312;52.614;13.496;2023-09-12T05:58:34;100546.13;;;21.68;54.58
26697;BME280;14312;52.614;13.496;2023-09-12T06:01:21;100545.34;;;21.76;54.35
26697;BME280;14312;52.614;13.496;2023-09-12T06:04:07;100547.91;;;21.81;54.21
26697;BME280;14312;52.614;13.496;2023-09-12T06:06:53;100546.66;;;21.87;54.37
26697;BME280;14312;52.614;13.496;2023-09-12T06:09:39;100549.19;;;21.92;54.47
26697;BME280;14312;52.614;13.496;2023-09-12T06:12:25;100547.34;;;22.01;54.29
26697;BME280;14312;52.614;13.496;2023-09-12T06:15:11;100545.25;;;22.07;54.38
26697;BME280;14312;52.614;13.496;2023-09-12T06:17:57;100558.84;;;22.15;54.46
26697;BME280;14312;52.614;13.496;2023-09-12T06:20:43;100567.75;;;22.24;54.50
26697;BME280;14312;52.614;13.496;2023-09-12T06:23:28;100566.50;;;22.31;54.45
26697;BME280;14312;52.614;13.496;2023-09-12T06:26:15;100561.84;;;22.40;54.30
26697;BME280;14312;52.614;13.496;2023-09-12T06:29:00;100560.25;;;22.47;54.45
26697;BME280;14312;52.614;13.496;2023-09-12T06:31:46;100555.31;;;22.58;54.27
26697;BME280;14312;52.614;13.496;2023-09-12T06:34:32;100541.84;;;22.70;54.16
26697;BME280;14312;52.614;13.496;2023-09-12T06:37:18;100549.53;;;22.85;54.45
26697;BME280;14312;52.614;13.496;2023-09-12T06:40:06;100564.81;;;22.98;54.40
26697;BME280;14312;52.614;13.496;2023-09-12T06:42:52;100559.50;;;23.11;54.32
26697;BME280;14312;52.614;13.496;2023-09-12T06:45:38;100565.06;;;23.23;53.90
26697;BME280;14312;52.614;13.496;2023-09-12T06:48:24;100567.22;;;23.38;53.80
26697;BME280;14312;52.614;13.496;2023-09-12T06:51:11;100570.22;;;23.54;53.69
26697;BME280;14312;52.614;13.496;2023-09-12T06:53:57;100566.94;;;23.69;53.49
26697;BME280;14312;52.614;13.496;2023-09-12T06:56:43;100574.22;;;23.86;53.50
26697;BME280;14312;52.614;13.496;2023-09-12T06:59:29;100580.19;;;24.00;53.41
26697;BME280;14312;52.614;13.496;2023-09-12T07:02:15;100573.00;;;24.16;53.27
26697;BME280;14312;52.614;13.496;2023-09-12T07:05:01;100573.94;;;24.29;52.86
26697;BME280;14312;52.614;13.496;2023-09-12T07:07:49;100574.09;;;24.44;52.90
26697;BME280;14312;52.614;13.496;2023-09-12T07:10:35;100568.03;;;24.59;52.47
26697;BME280;14312;52.614;13.496;2023-09-12T07:13:22;100573.97;;;24.74;52.33
26697;BME280;14312;52.614;13.496;2023-09-12T07:16:08;100572.88;;;24.87;52.31
26697;BME280;14312;52.614;13.496;2023-09-12T07:18:54;100580.44;;;25.02;52.14
26697;BME280;14312;52.614;13.496;2023-09-12T07:21:40;100580.13;;;25.16;51.97
26697;BME280;14312;52.614;13.496;2023-09-12T07:24:26;100573.09;;;25.27;51.72
26697;BME280;14312;52.614;13.496;2023-09-12T07:27:13;100586.88;;;25.43;51.31
26697;BME280;14312;52.614;13.496;2023-09-12T07:29:58;100583.00;;;25.56;50.87
26697;BME280;14312;52.614;13.496;2023-09-12T07:32:44;100581.88;;;25.69;50.37
26697;BME280;14312;52.614;13.496;2023-09-12T07:35:30;100583.47;;;25.82;50.61
26697;BME280;14312;52.614;13.496;2023-09-12T07:38:17;100579.56;;;25.95;50.50
26697;BME280;14312;52.614;13.496;2023-09-12T07:41:02;100567.94;;;26.10;50.07
26697;BME280;14312;52.614;13.496;2023-09-12T07:43:48;100569.47;;;26.24;50.09
26697;BME280;14312;52.614;13.496;2023-09-12T07:46:34;100567.19;;;26.38;49.70
26697;BME280;14312;52.614;13.496;2023-09-12T07:49:20;100557.78;;;26.51;49.82
26697;BME280;14312;52.614;13.496;2023-09-12T07:52:06;100560.56;;;26.67;49.59
26697;BME280;14312;52.614;13.496;2023-09-12T07:54:52;100561.84;;;26.85;49.48
26697;BME280;14312;52.614;13.496;2023-09-12T07:57:42;100569.38;;;27.04;49.31
26697;BME280;14312;52.614;13.496;2023-09-12T08:00:28;100556.50;;;27.20;48.94
26697;BME280;14312;52.614;13.496;2023-09-12T08:03:15;100558.84;;;27.37;48.50
26697;BME280;14312;52.614;13.496;2023-09-12T08:06:01;100557.38;;;27.55;48.66
26697;BME280;14312;52.614;13.496;2023-09-12T08:08:47;100578.19;;;27.76;48.64
26697;BME280;14312;52.614;13.496;2023-09-12T08:11:32;100564.50;;;27.95;48.76
26697;BME280;14312;52.614;13.496;2023-09-12T08:14:18;100572.22;;;28.24;48.40
26697;BME280;14312;52.614;13.496;2023-09-12T08:17:06;100562.97;;;28.52;48.40
26697;BME280;14312;52.614;13.496;2023-09-12T08:19:52;100561.28;;;28.86;48.27
26697;BME280;14312;52.614;13.496;2023-09-12T08:22:38;100564.59;;;29.17;47.68
26697;BME280;14312;52.614;13.496;2023-09-12T08:25:24;100564.38;;;29.52;47.02
26697;BME280;14312;52.614;13.496;2023-09-12T08:28:10;100571.91;;;29.85;46.53
26697;BME280;14312;52.614;13.496;2023-09-12T08:30:56;100575.50;;;30.16;45.87
26697;BME280;14312;52.614;13.496;2023-09-12T08:33:42;100574.25;;;30.43;45.29
26697;BME280;14312;52.614;13.496;2023-09-12T08:36:28;100562.00;;;30.70;45.29
26697;BME280;14312;52.614;13.496;2023-09-12T08:39:16;100556.75;;;30.99;45.13
26697;BME280;14312;52.614;13.496;2023-09-12T08:42:02;100546.00;;;31.27;44.75
26697;BME280;14312;52.614;13.496;2023-09-12T08:44:48;100556.13;;;31.64;45.24
26697;BME280;14312;52.614;13.496;2023-09-12T08:47:34;100563.00;;;31.98;44.35
26697;BME280;14312;52.614;13.496;2023-09-12T08:50:21;100566.75;;;32.31;42.98
26697;BME280;14312;52.614;13.496;2023-09-12T08:53:09;100563.66;;;32.57;42.79
26697;BME280;14312;52.614;13.496;2023-09-12T08:55:55;100556.63;;;32.84;42.31
26697;BME280;14312;52.614;13.496;2023-09-12T08:58:42;100563.38;;;33.08;41.40
26697;BME280;14312;52.614;13.496;2023-09-12T09:01:30;100564.97;;;33.30;40.93
26697;BME280;14312;52.614;13.496;2023-09-12T09:04:17;100564.16;;;33.44;41.02
26697;BME280;14312;52.614;13.496;2023-09-12T09:07:04;100563.75;;;33.56;40.12
26697;BME280;14312;52.614;13.496;2023-09-12T09:09:51;100577.53;;;33.70;40.02
26697;BME280;14312;52.614;13.496;2023-09-12T09:12:39;100579.13;;;33.86;39.86
26697;BME280;14312;52.614;13.496;2023-09-12T09:15:29;100567.59;;;34.05;39.47
26697;BME280;14312;52.614;13.496;2023-09-12T09:18:15;100578.22;;;34.24;39.63
26697;BME280;14312;52.614;13.496;2023-09-12T09:21:17;100578.13;;;34.45;38.38
26697;BME280;14312;52.614;13.496;2023-09-12T09:24:09;100574.09;;;34.53;38.46
26697;BME280;14312;52.614;13.496;2023-09-12T09:26:55;100587.16;;;34.56;37.98
26697;BME280;14312;52.614;13.496;2023-09-12T09:29:46;100581.19;;;34.65;38.04
26697;BME280;14312;52.614;13.496;2023-09-12T09:32:33;100583.56;;;34.63;37.42
26697;BME280;14312;52.614;13.496;2023-09-12T09:35:19;100594.63;;;34.67;37.35
26697;BME280;14312;52.614;13.496;2023-09-12T09:38:06;100588.69;;;34.65;37.10
26697;BME280;14312;52.614;13.496;2023-09-12T09:40:53;100589.13;;;34.60;36.80
26697;BME280;14312;52.614;13.496;2023-09-12T09:43:39;100587.16;;;34.56;37.01
26697;BME280;14312;52.614;13.496;2023-09-12T09:46:26;100585.22;;;34.50;36.91
26697;BME280;14312;52.614;13.496;2023-09-12T09:49:16;100593.16;;;34.44;36.61
26697;BME280;14312;52.614;13.496;2023-09-12T09:52:04;100599.13;;;34.32;36.82
26697;BME280;14312;52.614;13.496;2023-09-12T09:54:50;100596.03;;;34.23;37.21
26697;BME280;14312;52.614;13.496;2023-09-12T09:57:37;100589.31;;;34.17;37.38
26697;BME280;14312;52.614;13.496;2023-09-12T10:00:25;100591.66;;;34.15;37.50
26697;BME280;14312;52.614;13.496;2023-09-12T10:03:12;100589.31;;;34.17;37.57
26697;BME280;14312;52.614;13.496;2023-09-12T10:06:00;100586.94;;;34.23;37.31
26697;BME280;14312;52.614;13.496;2023-09-12T10:08:52;100588.88;;;34.29;37.18
26697;BME280;14312;52.614;13.496;2023-09-12T10:11:43;100586.88;;;34.33;36.85
26697;BME280;14312;52.614;13.496;2023-09-12T10:14:29;100585.28;;;34.32;37.20
26697;BME280;14312;52.614;13.496;2023-09-12T10:17:20;100582.91;;;34.34;36.93
26697;BME280;14312;52.614;13.496;2023-09-12T10:20:15;100578.97;;;34.35;36.63
26697;BME280;14312;52.614;13.496;2023-09-12T10:23:07;100571.03;;;34.37;37.04
26697;BME280;14312;52.614;13.496;2023-09-12T10:25:56;100578.97;;;34.35;36.69
26697;BME280;14312;52.614;13.496;2023-09-12T10:28:43;100564.72;;;34.33;36.97
26697;BME280;14312;52.614;13.496;2023-09-12T10:31:31;100565.91;;;34.32;36.98
26697;BME280;14312;52.614;13.496;2023-09-12T10:34:18;100562.38;;;34.28;36.81
26697;BME280;14312;52.614;13.496;2023-09-12T10:37:05;100553.69;;;34.19;36.86
26697;BME280;14312;52.614;13.496;2023-09-12T10:39:55;100546.63;;;34.11;36.73
26697;BME280;14312;52.614;13.496;2023-09-12T10:42:42;100548.25;;;34.01;36.81
26697;BME280;14312;52.614;13.496;2023-09-12T10:45:29;100542.75;;;33.91;36.88
26697;BME280;14312;52.614;13.496;2023-09-12T10:48:17;100547.13;;;33.85;36.84
26697;BME280;14312;52.614;13.496;2023-09-12T10:51:03;100543.97;;;33.83;36.81
26697;BME280;14312;52.614;13.496;2023-09-12T10:53:50;100545.97;;;33.78;37.06
26697;BME280;14312;52.614;13.496;2023-09-12T10:56:36;100545.97;;;33.78;37.20
26697;BME280;14312;52.614;13.496;2023-09-12T10:59:22;100546.72;;;33.83;37.00
26697;BME280;14312;52.614;13.496;2023-09-12T11:02:30;100548.28;;;33.94;37.41
26697;BME280;14312;52.614;13.496;2023-09-12T11:08:15;100544.25;;;34.13;36.82
26697;BME280;14312;52.614;13.496;2023-09-12T11:11:18;100544.59;;;34.29;36.95
26697;BME280;14312;52.614;13.496;2023-09-12T11:14:05;100537.84;;;34.37;36.60
26697;BME280;14312;52.614;13.496;2023-09-12T11:19:53;100540.03;;;34.67;36.37
26697;BME280;14312;52.614;13.496;2023-09-12T11:22:41;100539.91;;;34.85;36.62
26697;BME280;14312;52.614;13.496;2023-09-12T11:25:27;100542.56;;;34.99;36.23
26697;BME280;14312;52.614;13.496;2023-09-12T11:28:13;100540.88;;;35.12;35.72
26697;BME280;14312;52.614;13.496;2023-09-12T11:30:59;100534.03;;;35.27;35.80
26697;BME280;14312;52.614;13.496;2023-09-12T11:33:46;100530.31;;;35.45;35.33
26697;BME280;14312;52.614;13.496;2023-09-12T11:36:38;100528.19;;;35.59;34.90
26697;BME280;14312;52.614;13.496;2023-09-12T11:39:28;100529.25;;;35.69;35.63
26697;BME280;14312;52.614;13.496;2023-09-12T11:42:15;100537.47;;;35.80;34.89
26697;BME280;14312;52.614;13.496;2023-09-12T11:45:07;100533.34;;;35.95;34.50
26697;BME280;14312;52.614;13.496;2023-09-12T11:47:54;100533.19;;;36.05;34.82
26697;BME280;14312;52.614;13.496;2023-09-12T11:50:39;100536.34;;;36.07;34.67
26697;BME280;14312;52.614;13.496;2023-09-12T11:53:28;100526.84;;;36.05;34.32
26697;BME280;14312;52.614;13.496;2023-09-12T11:56:16;100526.44;;;36.06;34.19
26697;BME280;14312;52.614;13.496;2023-09-12T11:59:02;100530.00;;;36.07;34.53
26697;BME280;14312;52.614;13.496;2023-09-12T12:01:49;100528.38;;;36.09;34.18
26697;BME280;14312;52.614;13.496;2023-09-12T12:04:35;100523.56;;;36.14;33.78
26697;BME280;14312;52.614;13.496;2023-09-12T12:07:22;100529.78;;;36.25;33.98
26697;BME280;14312;52.614;13.496;2023-09-12T12:10:08;100528.38;;;36.40;33.79
26697;BME280;14312;52.614;13.496;2023-09-12T12:12:54;100521.91;;;36.50;33.40
26697;BME280;14312;52.614;13.496;2023-09-12T12:15:40;100523.94;;;36.46;33.64
26697;BME280;14312;52.614;13.496;2023-09-12T12:18:26;100530.34;;;36.43;33.59
26697;BME280;14312;52.614;13.496;2023-09-12T12:21:12;100519.97;;;36.47;33.33
26697;BME280;14312;52.614;13.496;2023-09-12T12:23:59;100526.25;;;36.51;32.73
26697;BME280;14312;52.614;13.496;2023-09-12T12:26:45;100519.84;;;36.54;33.13
26697;BME280;14312;52.614;13.496;2023-09-12T12:29:31;100518.91;;;36.64;32.97
26697;BME280;14312;52.614;13.496;2023-09-12T12:32:18;100520.28;;;36.79;32.80
26697;BME280;14312;52.614;13.496;2023-09-12T12:35:06;100520.06;;;36.94;32.51
26697;BME280;14312;52.614;13.496;2023-09-12T12:37:54;100530.47;;;37.13;33.09
26697;BME280;14312;52.614;13.496;2023-09-12T12:40:41;100522.59;;;37.31;32.62
26697;BME280;14312;52.614;13.496;2023-09-12T12:43:27;100516.63;;;37.52;31.97
26697;BME280;14312;52.614;13.496;2023-09-12T12:46:13;100518.81;;;37.65;31.55
26697;BME280;14312;52.614;13.496;2023-09-12T12:48:59;100519.59;;;37.65;31.63
26697;BME280;14312;52.614;13.496;2023-09-12T12:51:46;100518.72;;;37.68;31.47
26697;BME280;14312;52.614;13.496;2023-09-12T12:54:32;100513.44;;;37.74;31.37
26697;BME280;14312;52.614;13.496;2023-09-12T12:57:21;100505.69;;;37.85;31.30
26697;BME280;14312;52.614;13.496;2023-09-12T13:00:11;100503.69;;;38.05;31.46
26697;BME280;14312;52.614;13.496;2023-09-12T13:02:57;100495.22;;;38.28;31.34
26697;BME280;14312;52.614;13.496;2023-09-12T13:05:43;100493.78;;;38.56;30.93
26697;BME280;14312;52.614;13.496;2023-09-12T13:08:29;100485.34;;;38.76;30.36
26697;BME280;14312;52.614;13.496;2023-09-12T13:11:16;100496.31;;;38.99;30.40
26697;BME280;14312;52.614;13.496;2023-09-12T13:14:03;100479.16;;;39.30;30.20
26697;BME280;14312;52.614;13.496;2023-09-12T13:16:55;100475.53;;;39.74;30.61
26697;BME280;14312;52.614;13.496;2023-09-12T13:19:40;100470.16;;;40.21;30.08
26697;BME280;14312;52.614;13.496;2023-09-12T13:22:26;100471.47;;;40.55;29.10
26697;BME280;14312;52.614;13.496;2023-09-12T13:25:12;100471.81;;;40.70;28.62
26697;BME280;14312;52.614;13.496;2023-09-12T13:27:58;100469.78;;;40.83;27.87
26697;BME280;14312;52.614;13.496;2023-09-12T13:30:44;100478.66;;;41.03;28.38
26697;BME280;14312;52.614;13.496;2023-09-12T13:33:30;100466.16;;;41.29;28.92
26697;BME280;14312;52.614;13.496;2023-09-12T13:36:17;100470.94;;;41.63;28.18
26697;BME280;14312;52.614;13.496;2023-09-12T13:39:03;100464.28;;;41.92;27.85
26697;BME280;14312;52.614;13.496;2023-09-12T13:41:49;100460.81;;;42.18;27.22
26697;BME280;14312;52.614;13.496;2023-09-12T13:44:35;100462.81;;;42.49;27.53
26697;BME280;14312;52.614;13.496;2023-09-12T13:47:21;100461.47;;;42.81;27.09
26697;BME280;14312;52.614;13.496;2023-09-12T13:50:08;100474.44;;;43.15;26.94
26697;BME280;14312;52.614;13.496;2023-09-12T13:52:54;100467.41;;;43.47;26.05
26697;BME280;14312;52.614;13.496;2023-09-12T13:55:41;100478.47;;;43.68;25.54
26697;BME280;14312;52.614;13.496;2023-09-12T13:58:27;100475.00;;;43.73;24.89
26697;BME280;14312;52.614;13.496;2023-09-12T14:01:13;100485.97;;;43.53;23.89
26697;BME280;14312;52.614;13.496;2023-09-12T14:03:59;100472.88;;;43.14;24.01
26697;BME280;14312;52.614;13.496;2023-09-12T14:06:45;100470.00;;;42.68;23.67
26697;BME280;14312;52.614;13.496;2023-09-12T14:09:31;100472.78;;;42.19;24.10
26697;BME280;14312;52.614;13.496;2023-09-12T14:12:17;100485.63;;;41.76;25.05
26697;BME280;14312;52.614;13.496;2023-09-12T14:15:03;100480.53;;;41.40;25.17
26697;BME280;14312;52.614;13.496;2023-09-12T14:17:49;100486.81;;;41.10;25.58
26697;BME280;14312;52.614;13.496;2023-09-12T14:20:35;100478.50;;;40.85;25.93
26697;BME280;14312;52.614;13.496;2023-09-12T14:23:21;100479.75;;;40.71;25.37
26697;BME280;14312;52.614;13.496;2023-09-12T14:26:06;100486.31;;;40.64;25.81
26697;BME280;14312;52.614;13.496;2023-09-12T14:28:52;100463.19;;;40.64;25.90
26697;BME280;14312;52.614;13.496;2023-09-12T14:31:38;100477.63;;;40.62;26.29